createdAt,value
2018-12-19T00:03:11.212Z,0.50
2018-12-19T00:08:02.226Z,0.50
2018-12-19T00:12:53.150Z,0.40
2018-12-19T00:17:44.821Z,0.40
2018-12-19T00:22:36.508Z,0.40
2018-12-19T00:27:27.443Z,0.40
2018-12-19T00:32:18.359Z,0.40
2018-12-19T00:37:09.262Z,0.40
2018-12-19T00:42:00.337Z,0.40
2018-12-19T00:46:51.969Z,0.40
2018-12-19T00:51:43.601Z,0.40
2018-12-19T00:56:35.241Z,0.40
2018-12-19T01:01:26.937Z,0.40
2018-12-19T01:06:17.831Z,0.30
2018-12-19T01:11:08.721Z,0.30
2018-12-19T01:16:00.363Z,0.30
2018-12-19T01:20:51.253Z,0.30
2018-12-19T01:25:42.234Z,0.30
2018-12-19T01:30:33.116Z,0.30
2018-12-19T01:35:24.078Z,0.30
2018-12-19T01:40:14.957Z,0.30
2018-12-19T01:45:05.908Z,0.30
2018-12-19T01:49:56.789Z,0.30
2018-12-19T01:54:47.673Z,0.20
2018-12-19T01:59:38.566Z,0.20
2018-12-19T02:04:29.452Z,0.20
2018-12-19T02:09:20.355Z,0.20
2018-12-19T02:14:11.988Z,0.20
2018-12-19T02:19:03.669Z,0.20
2018-12-19T02:23:54.552Z,0.10
2018-12-19T02:28:45.449Z,0.20
2018-12-19T02:33:37.090Z,0.10
2018-12-19T02:38:28.778Z,0.10
2018-12-19T02:43:19.657Z,0.10
2018-12-19T02:48:10.544Z,0.10
2018-12-19T02:53:02.249Z,0.00
2018-12-19T02:57:53.137Z,0.10
2018-12-19T03:02:44.025Z,0.00
2018-12-19T03:07:34.919Z,0.00
2018-12-19T03:12:25.827Z,0.00
2018-12-19T03:17:16.715Z,0.00
2018-12-19T03:22:07.600Z,0.00
2018-12-19T03:26:59.225Z,0.00
2018-12-19T03:31:50.184Z,-0.10
2018-12-19T03:36:41.128Z,0.00
2018-12-19T03:41:32.022Z,-0.10
2018-12-19T03:46:22.978Z,-0.10
2018-12-19T03:51:13.869Z,-0.10
2018-12-19T03:56:04.754Z,-0.10
2018-12-19T04:00:56.445Z,-0.10
2018-12-19T04:05:47.329Z,-0.10
2018-12-19T04:10:38.231Z,-0.10
2018-12-19T04:15:29.924Z,-0.10
2018-12-19T04:20:20.805Z,-0.10
2018-12-19T04:25:11.698Z,-0.10
2018-12-19T04:30:03.315Z,-0.10
2018-12-19T04:34:55.677Z,-0.10
2018-12-19T04:39:46.557Z,-0.10
2018-12-19T04:44:37.437Z,-0.10
2018-12-19T04:49:28.401Z,0.00
2018-12-19T04:54:19.289Z,0.00
2018-12-19T04:59:10.183Z,0.00
2018-12-19T05:04:01.810Z,0.00
2018-12-19T05:08:53.517Z,0.00
2018-12-19T05:13:44.394Z,0.00
2018-12-19T05:18:35.719Z,0.00
2018-12-19T05:23:26.971Z,0.10
2018-12-19T05:28:17.853Z,0.10
2018-12-19T05:33:09.537Z,0.10
2018-12-19T05:38:00.441Z,0.10
2018-12-19T05:42:51.378Z,0.20
2018-12-19T05:47:42.264Z,0.20
2018-12-19T05:52:33.170Z,0.20
2018-12-19T05:57:24.131Z,0.20
2018-12-19T06:02:15.021Z,0.30
2018-12-19T06:07:05.896Z,0.30
2018-12-19T06:11:56.881Z,0.30
2018-12-19T06:16:47.768Z,0.40
2018-12-19T06:21:38.716Z,0.40
2018-12-19T06:26:29.607Z,0.40
2018-12-19T06:31:20.492Z,0.50
2018-12-19T06:36:11.850Z,0.50
2018-12-19T06:41:02.729Z,0.50
2018-12-19T06:45:53.618Z,0.60
2018-12-19T06:50:44.532Z,0.60
2018-12-19T06:55:35.422Z,0.60
2018-12-19T07:00:26.300Z,0.60
2018-12-19T07:05:17.181Z,0.60
2018-12-19T07:10:08.077Z,0.70
2018-12-19T07:14:58.971Z,0.70
2018-12-19T07:19:50.610Z,0.70
2018-12-19T07:24:42.293Z,0.70
2018-12-19T07:29:33.189Z,0.70
2018-12-19T07:34:24.124Z,0.70
2018-12-19T07:39:15.019Z,0.80
2018-12-19T07:44:05.914Z,0.80
2018-12-19T07:48:57.560Z,0.80
2018-12-19T07:53:49.182Z,0.80
2018-12-19T07:58:40.809Z,0.80
2018-12-19T08:03:31.793Z,0.80
2018-12-19T08:08:22.688Z,0.80
2018-12-19T08:13:13.634Z,0.90
2018-12-19T08:18:05.672Z,0.90
2018-12-19T08:22:55.603Z,0.90
2018-12-19T08:27:47.414Z,1.00
2018-12-19T08:32:38.332Z,0.90
2018-12-19T08:37:32.732Z,1.00
2018-12-19T08:42:24.517Z,1.00
2018-12-19T08:47:16.204Z,1.00
2018-12-19T08:52:07.097Z,1.00
2018-12-19T08:56:57.990Z,1.10
2018-12-19T09:01:49.618Z,1.10
2018-12-19T09:06:40.614Z,1.10
2018-12-19T09:11:31.493Z,1.10
2018-12-19T09:16:22.380Z,1.20
2018-12-19T09:21:14.064Z,1.20
2018-12-19T09:26:04.962Z,1.20
2018-12-19T09:30:55.902Z,1.20
2018-12-19T09:35:46.925Z,1.30
2018-12-19T09:40:37.980Z,1.30
2018-12-19T09:45:29.642Z,1.40
2018-12-19T09:50:21.320Z,1.40
2018-12-19T09:55:12.213Z,1.40
2018-12-19T10:00:03.163Z,1.40
2018-12-19T10:04:54.072Z,1.50
2018-12-19T10:09:44.988Z,1.50
2018-12-19T10:14:35.907Z,1.60
2018-12-19T10:19:26.843Z,1.60
2018-12-19T10:24:17.729Z,1.70
2018-12-19T10:29:08.612Z,1.70
2018-12-19T10:34:00.310Z,1.80
2018-12-19T10:38:51.194Z,1.80
2018-12-19T10:43:42.141Z,1.80
2018-12-19T10:48:33.136Z,1.90
2018-12-19T10:53:24.020Z,2.00
2018-12-19T10:58:14.996Z,2.00
2018-12-19T11:03:05.888Z,2.10
2018-12-19T11:07:56.784Z,2.10
2018-12-19T11:12:48.417Z,2.20
2018-12-19T11:17:40.042Z,2.30
2018-12-19T11:22:31.025Z,2.30
2018-12-19T11:27:21.906Z,2.30
2018-12-19T11:32:13.540Z,2.40
2018-12-19T11:37:05.164Z,2.40
2018-12-19T11:41:56.797Z,2.50
2018-12-19T11:46:48.424Z,2.50
2018-12-19T11:51:39.308Z,2.50
2018-12-19T11:56:30.225Z,2.50
2018-12-19T12:01:21.916Z,2.60
2018-12-19T12:06:14.108Z,2.60
2018-12-19T12:11:05.028Z,2.60
2018-12-19T12:15:55.941Z,2.70
2018-12-19T12:20:46.834Z,2.70
2018-12-19T12:25:37.792Z,2.70
2018-12-19T12:30:28.696Z,2.70
2018-12-19T12:35:19.624Z,2.80
2018-12-19T12:40:10.517Z,2.80
2018-12-19T12:45:01.420Z,2.80
2018-12-19T12:49:53.092Z,2.90
2018-12-19T12:54:44.084Z,2.90
2018-12-19T12:59:35.033Z,2.90
2018-12-19T13:04:25.949Z,3.00
2018-12-19T13:09:16.837Z,3.00
2018-12-19T13:14:07.787Z,3.10
2018-12-19T13:18:58.708Z,3.10
2018-12-19T13:23:49.637Z,3.10
2018-12-19T13:28:40.544Z,3.10
2018-12-19T13:33:31.465Z,3.10
2018-12-19T13:38:22.509Z,3.20
2018-12-19T13:43:14.220Z,3.20
2018-12-19T13:48:05.101Z,3.20
2018-12-19T13:52:56.781Z,3.20
2018-12-19T13:57:47.661Z,3.20
2018-12-19T14:02:38.613Z,3.30
2018-12-19T14:07:29.506Z,3.30
2018-12-19T14:12:20.456Z,3.30
2018-12-19T14:17:11.332Z,3.30
2018-12-19T14:22:02.285Z,3.30
2018-12-19T14:26:53.178Z,3.30
2018-12-19T14:31:44.343Z,3.30
2018-12-19T14:36:35.249Z,3.30
2018-12-19T14:41:26.133Z,3.30
2018-12-19T14:46:17.086Z,3.30
2018-12-19T14:51:07.990Z,3.30
2018-12-19T14:55:58.912Z,3.30
2018-12-19T15:00:49.841Z,3.30
2018-12-19T15:05:40.721Z,3.30
2018-12-19T15:10:32.356Z,3.30
2018-12-19T15:15:23.976Z,3.30
2018-12-19T15:20:15.596Z,3.30
2018-12-19T15:25:06.480Z,3.30
2018-12-19T15:29:57.396Z,3.30
2018-12-19T15:34:55.276Z,3.30
2018-12-19T15:39:46.160Z,3.30
2018-12-19T15:44:37.845Z,3.30
2018-12-19T15:49:28.735Z,3.30
2018-12-19T15:54:19.624Z,3.30
2018-12-19T15:59:11.316Z,3.30
2018-12-19T16:04:02.224Z,3.30
2018-12-19T16:08:53.131Z,3.30
2018-12-19T16:13:44.057Z,3.30
2018-12-19T16:18:34.936Z,3.30
2018-12-19T16:23:25.828Z,3.30
2018-12-19T16:28:17.476Z,3.30
2018-12-19T16:33:08.348Z,3.20
2018-12-19T16:37:59.272Z,3.30
2018-12-19T16:42:50.152Z,3.30
2018-12-19T16:47:41.784Z,3.30
2018-12-19T16:52:33.409Z,3.30
2018-12-19T16:57:25.032Z,3.30
2018-12-19T17:02:16.026Z,3.30
2018-12-19T17:07:06.910Z,3.30
2018-12-19T17:11:57.785Z,3.30
2018-12-19T17:16:48.666Z,3.30
2018-12-19T17:21:39.589Z,3.30
2018-12-19T17:26:30.481Z,3.30
2018-12-19T17:31:21.360Z,3.30
2018-12-19T17:36:12.237Z,3.30
2018-12-19T17:41:03.188Z,3.30
2018-12-19T17:45:54.031Z,3.30
2018-12-19T17:50:45.722Z,3.30
2018-12-19T17:55:36.613Z,3.30
2018-12-19T18:00:27.493Z,3.30
2018-12-19T18:05:18.476Z,3.30
2018-12-19T18:10:09.364Z,3.30
2018-12-19T18:15:00.257Z,3.30
2018-12-19T18:19:51.878Z,3.30
2018-12-19T18:24:42.757Z,3.30
2018-12-19T18:29:33.672Z,3.30
2018-12-19T18:34:24.596Z,3.30
2018-12-19T18:39:15.496Z,3.30
2018-12-19T18:44:06.519Z,3.30
2018-12-19T18:48:57.404Z,3.40
2018-12-19T18:53:49.101Z,3.40
2018-12-19T18:58:40.002Z,3.40
2018-12-19T19:03:30.885Z,3.40
2018-12-19T19:08:22.616Z,3.40
2018-12-19T19:13:19.602Z,3.50
2018-12-19T19:18:05.878Z,3.50
2018-12-19T19:22:56.760Z,3.50
2018-12-19T19:27:47.645Z,3.50
2018-12-19T19:32:38.524Z,3.50
2018-12-19T19:37:29.412Z,3.50
2018-12-19T19:42:20.352Z,3.50
2018-12-19T19:47:11.238Z,3.50
2018-12-19T19:52:02.166Z,3.50
2018-12-19T19:56:53.095Z,3.60
2018-12-19T20:01:44.005Z,3.60
2018-12-19T20:06:34.927Z,3.60
2018-12-19T20:11:25.837Z,3.60
2018-12-19T20:16:16.732Z,3.60
2018-12-19T20:21:07.672Z,3.60
2018-12-19T20:25:58.596Z,3.60
2018-12-19T20:30:49.476Z,3.60
2018-12-19T20:35:41.104Z,3.60
2018-12-19T20:40:32.737Z,3.60
2018-12-19T20:45:24.429Z,3.60
2018-12-19T20:50:15.315Z,3.50
2018-12-19T20:55:06.216Z,3.50
2018-12-19T20:59:57.896Z,3.50
2018-12-19T21:04:48.867Z,3.50
2018-12-19T21:09:39.748Z,3.60
2018-12-19T21:14:30.685Z,3.50
2018-12-19T21:19:21.669Z,3.60
2018-12-19T21:24:12.588Z,3.60
2018-12-19T21:29:04.783Z,3.50
2018-12-19T21:33:54.528Z,3.50
2018-12-19T21:38:45.592Z,3.50
2018-12-19T21:43:37.289Z,3.50
2018-12-19T21:48:28.180Z,3.50
2018-12-19T21:53:19.133Z,3.50
2018-12-19T21:58:10.119Z,3.50
2018-12-19T22:03:01.724Z,3.50
2018-12-19T22:07:53.397Z,3.50
2018-12-19T22:12:44.308Z,3.50
2018-12-19T22:17:40.184Z,3.50
2018-12-19T22:22:31.065Z,3.50
2018-12-19T22:27:21.944Z,3.50
2018-12-19T22:32:12.830Z,3.50
2018-12-19T22:37:03.743Z,3.50
2018-12-19T22:41:54.644Z,3.50
2018-12-19T22:46:45.528Z,3.50
2018-12-19T22:51:37.153Z,3.50
2018-12-19T22:56:28.785Z,3.50
2018-12-19T23:01:26.602Z,3.50
2018-12-19T23:06:17.568Z,3.40
2018-12-19T23:11:09.177Z,3.50
2018-12-19T23:16:00.057Z,3.50
2018-12-19T23:20:51.696Z,3.50
2018-12-19T23:25:43.323Z,3.50
2018-12-19T23:30:35.068Z,3.50
2018-12-19T23:35:25.909Z,3.50
2018-12-19T23:40:16.792Z,3.50
2018-12-19T23:45:08.471Z,3.50
2018-12-19T23:49:59.488Z,3.50
2018-12-19T23:54:50.312Z,3.50
2018-12-19T23:59:41.281Z,3.50
